sensor_id;sensor_type;location;lat;lon;timestamp;P1;durP1;ratioP1;P2;durP2;ratioP2
56267;SDS011;42175;46.930;9.532;2022-11-15T00:00:44;5.22;;;1.98;;
56267;SDS011;42175;46.930;9.532;2022-11-15T00:03:09;5.93;;;2.80;;
56267;SDS011;42175;46.930;9.532;2022-11-15T00:05:38;5.32;;;2.08;;
56267;SDS011;42175;46.930;9.532;2022-11-15T00:08:03;6.30;;;2.63;;
56267;SDS011;42175;46.930;9.532;2022-11-15T00:10:29;4.28;;;2.25;;
56267;SDS011;42175;46.930;9.532;2022-11-15T00:12:55;4.22;;;1.92;;
56267;SDS011;42175;46.930;9.532;2022-11-15T00:15:20;5.47;;;1.92;;
56267;SDS011;42175;46.930;9.532;2022-11-15T00:17:48;4.68;;;2.17;;
56267;SDS011;42175;46.930;9.532;2022-11-15T00:20:15;4.65;;;1.92;;
56267;SDS011;42175;46.930;9.532;2022-11-15T00:22:42;5.10;;;2.13;;
56267;SDS011;42175;46.930;9.532;2022-11-15T00:25:07;4.97;;;1.80;;
56267;SDS011;42175;46.930;9.532;2022-11-15T00:27:33;5.65;;;2.30;;
56267;SDS011;42175;46.930;9.532;2022-11-15T00:30:00;3.65;;;1.60;;
56267;SDS011;42175;46.930;9.532;2022-11-15T00:32:26;4.85;;;2.25;;
56267;SDS011;42175;46.930;9.532;2022-11-15T00:34:51;3.55;;;1.92;;
56267;SDS011;42175;46.930;9.532;2022-11-15T00:37:17;4.82;;;1.80;;
56267;SDS011;42175;46.930;9.532;2022-11-15T00:39:43;5.80;;;2.13;;
56267;SDS011;42175;46.930;9.532;2022-11-15T00:42:08;4.45;;;2.05;;
56267;SDS011;42175;46.930;9.532;2022-11-15T00:44:34;5.05;;;2.22;;
56267;SDS011;42175;46.930;9.532;2022-11-15T00:47:00;4.72;;;1.70;;
56267;SDS011;42175;46.930;9.532;2022-11-15T00:49:26;5.97;;;2.00;;
56267;SDS011;42175;46.930;9.532;2022-11-15T00:51:51;4.10;;;1.75;;
56267;SDS011;42175;46.930;9.532;2022-11-15T00:54:17;2.97;;;1.50;;
56267;SDS011;42175;46.930;9.532;2022-11-15T00:56:43;3.03;;;1.70;;
56267;SDS011;42175;46.930;9.532;2022-11-15T00:59:09;4.90;;;1.80;;
56267;SDS011;42175;46.930;9.532;2022-11-15T01:01:34;2.78;;;1.80;;
56267;SDS011;42175;46.930;9.532;2022-11-15T01:04:00;7.45;;;2.05;;
56267;SDS011;42175;46.930;9.532;2022-11-15T01:06:26;3.58;;;1.60;;
56267;SDS011;42175;46.930;9.532;2022-11-15T01:08:51;4.55;;;2.17;;
56267;SDS011;42175;46.930;9.532;2022-11-15T01:11:17;3.40;;;1.73;;
56267;SDS011;42175;46.930;9.532;2022-11-15T01:13:43;3.63;;;1.60;;
56267;SDS011;42175;46.930;9.532;2022-11-15T01:16:10;3.83;;;1.60;;
56267;SDS011;42175;46.930;9.532;2022-11-15T01:18:38;4.10;;;1.48;;
56267;SDS011;42175;46.930;9.532;2022-11-15T01:21:08;5.78;;;1.73;;
56267;SDS011;42175;46.930;9.532;2022-11-15T01:26:05;3.58;;;1.70;;
56267;SDS011;42175;46.930;9.532;2022-11-15T01:28:32;4.38;;;2.15;;
56267;SDS011;42175;46.930;9.532;2022-11-15T01:31:00;3.60;;;1.85;;
56267;SDS011;42175;46.930;9.532;2022-11-15T01:33:27;2.08;;;1.23;;
56267;SDS011;42175;46.930;9.532;2022-11-15T01:35:54;3.75;;;1.75;;
56267;SDS011;42175;46.930;9.532;2022-11-15T01:38:19;3.05;;;1.60;;
56267;SDS011;42175;46.930;9.532;2022-11-15T01:40:46;3.78;;;1.60;;
56267;SDS011;42175;46.930;9.532;2022-11-15T01:43:22;2.60;;;1.60;;
56267;SDS011;42175;46.930;9.532;2022-11-15T01:45:50;5.35;;;1.80;;
56267;SDS011;42175;46.930;9.532;2022-11-15T01:48:40;5.00;;;1.58;;
56267;SDS011;42175;46.930;9.532;2022-11-15T01:51:07;3.63;;;1.33;;
56267;SDS011;42175;46.930;9.532;2022-11-15T01:53:36;4.93;;;2.25;;
56267;SDS011;42175;46.930;9.532;2022-11-15T01:56:05;3.13;;;1.33;;
56267;SDS011;42175;46.930;9.532;2022-11-15T01:58:33;3.25;;;1.42;;
56267;SDS011;42175;46.930;9.532;2022-11-15T02:01:00;4.07;;;1.50;;
56267;SDS011;42175;46.930;9.532;2022-11-15T02:03:29;4.53;;;1.55;;
56267;SDS011;42175;46.930;9.532;2022-11-15T02:06:03;5.20;;;1.52;;
56267;SDS011;42175;46.930;9.532;2022-11-15T02:08:30;3.35;;;1.52;;
56267;SDS011;42175;46.930;9.532;2022-11-15T02:10:56;4.25;;;2.03;;
56267;SDS011;42175;46.930;9.532;2022-11-15T02:13:22;2.88;;;1.38;;
56267;SDS011;42175;46.930;9.532;2022-11-15T02:18:47;3.10;;;1.73;;
56267;SDS011;42175;46.930;9.532;2022-11-15T02:24:17;2.95;;;1.33;;
56267;SDS011;42175;46.930;9.532;2022-11-15T02:30:04;3.53;;;1.38;;
56267;SDS011;42175;46.930;9.532;2022-11-15T02:35:34;4.65;;;1.70;;
56267;SDS011;42175;46.930;9.532;2022-11-15T02:38:22;2.15;;;1.30;;
56267;SDS011;42175;46.930;9.532;2022-11-15T02:40:58;2.45;;;1.48;;
56267;SDS011;42175;46.930;9.532;2022-11-15T02:43:29;6.60;;;1.35;;
56267;SDS011;42175;46.930;9.532;2022-11-15T02:49:38;2.72;;;1.50;;
56267;SDS011;42175;46.930;9.532;2022-11-15T02:52:08;1.90;;;1.35;;
56267;SDS011;42175;46.930;9.532;2022-11-15T02:54:33;2.13;;;1.10;;
56267;SDS011;42175;46.930;9.532;2022-11-15T02:57:01;2.30;;;1.38;;
56267;SDS011;42175;46.930;9.532;2022-11-15T03:02:32;3.22;;;1.38;;
56267;SDS011;42175;46.930;9.532;2022-11-15T03:05:13;2.60;;;1.25;;
56267;SDS011;42175;46.930;9.532;2022-11-15T03:18:40;2.10;;;1.13;;
56267;SDS011;42175;46.930;9.532;2022-11-15T03:21:09;3.08;;;1.55;;
56267;SDS011;42175;46.930;9.532;2022-11-15T03:23:38;3.38;;;1.65;;
56267;SDS011;42175;46.930;9.532;2022-11-15T03:26:05;2.75;;;1.30;;
56267;SDS011;42175;46.930;9.532;2022-11-15T03:28:45;2.42;;;1.52;;
56267;SDS011;42175;46.930;9.532;2022-11-15T03:31:18;3.15;;;1.40;;
56267;SDS011;42175;46.930;9.532;2022-11-15T03:34:05;2.15;;;1.10;;
56267;SDS011;42175;46.930;9.532;2022-11-15T03:36:34;3.22;;;1.38;;
56267;SDS011;42175;46.930;9.532;2022-11-15T03:39:01;5.38;;;1.40;;
56267;SDS011;42175;46.930;9.532;2022-11-15T03:41:42;2.80;;;1.17;;
56267;SDS011;42175;46.930;9.532;2022-11-15T03:44:21;2.33;;;1.35;;
56267;SDS011;42175;46.930;9.532;2022-11-15T03:47:03;2.60;;;1.25;;
56267;SDS011;42175;46.930;9.532;2022-11-15T03:49:45;2.47;;;1.33;;
56267;SDS011;42175;46.930;9.532;2022-11-15T03:52:19;3.75;;;1.10;;
56267;SDS011;42175;46.930;9.532;2022-11-15T03:54:53;1.98;;;1.27;;
56267;SDS011;42175;46.930;9.532;2022-11-15T03:57:20;2.42;;;1.17;;
56267;SDS011;42175;46.930;9.532;2022-11-15T03:59:47;3.97;;;1.27;;
56267;SDS011;42175;46.930;9.532;2022-11-15T04:02:13;2.30;;;1.23;;
56267;SDS011;42175;46.930;9.532;2022-11-15T04:04:39;4.30;;;1.20;;
56267;SDS011;42175;46.930;9.532;2022-11-15T04:07:05;2.33;;;1.27;;
56267;SDS011;42175;46.930;9.532;2022-11-15T04:09:31;2.72;;;1.20;;
56267;SDS011;42175;46.930;9.532;2022-11-15T04:11:57;2.05;;;1.20;;
56267;SDS011;42175;46.930;9.532;2022-11-15T04:14:23;2.30;;;1.20;;
56267;SDS011;42175;46.930;9.532;2022-11-15T04:16:48;3.03;;;1.20;;
56267;SDS011;42175;46.930;9.532;2022-11-15T04:19:14;2.97;;;1.10;;
56267;SDS011;42175;46.930;9.532;2022-11-15T04:21:58;5.57;;;1.27;;
56267;SDS011;42175;46.930;9.532;2022-11-15T04:27:08;2.97;;;1.17;;
56267;SDS011;42175;46.930;9.532;2022-11-15T04:29:34;1.98;;;1.20;;
56267;SDS011;42175;46.930;9.532;2022-11-15T04:32:00;2.47;;;1.35;;
56267;SDS011;42175;46.930;9.532;2022-11-15T04:34:27;2.05;;;1.10;;
56267;SDS011;42175;46.930;9.532;2022-11-15T04:36:53;1.75;;;1.13;;
56267;SDS011;42175;46.930;9.532;2022-11-15T04:39:37;1.55;;;1.00;;
56267;SDS011;42175;46.930;9.532;2022-11-15T04:42:04;1.75;;;1.05;;
56267;SDS011;42175;46.930;9.532;2022-11-15T04:44:29;2.17;;;1.10;;
56267;SDS011;42175;46.930;9.532;2022-11-15T04:46:56;1.80;;;1.00;;
56267;SDS011;42175;46.930;9.532;2022-11-15T04:49:22;2.30;;;1.27;;
56267;SDS011;42175;46.930;9.532;2022-11-15T04:51:47;1.70;;;1.20;;
56267;SDS011;42175;46.930;9.532;2022-11-15T04:54:13;2.20;;;1.05;;
56267;SDS011;42175;46.930;9.532;2022-11-15T04:56:39;1.80;;;1.00;;
56267;SDS011;42175;46.930;9.532;2022-11-15T04:59:05;5.80;;;1.40;;
56267;SDS011;42175;46.930;9.532;2022-11-15T05:01:31;2.30;;;1.30;;
56267;SDS011;42175;46.930;9.532;2022-11-15T05:03:57;3.25;;;1.20;;
56267;SDS011;42175;46.930;9.532;2022-11-15T05:06:41;1.50;;;1.02;;
56267;SDS011;42175;46.930;9.532;2022-11-15T05:09:07;3.40;;;1.20;;
56267;SDS011;42175;46.930;9.532;2022-11-15T05:11:32;1.60;;;0.90;;
56267;SDS011;42175;46.930;9.532;2022-11-15T05:13:58;1.60;;;0.93;;
56267;SDS011;42175;46.930;9.532;2022-11-15T05:16:24;1.80;;;1.10;;
56267;SDS011;42175;46.930;9.532;2022-11-15T05:18:50;1.75;;;1.00;;
56267;SDS011;42175;46.930;9.532;2022-11-15T05:21:17;2.78;;;1.55;;
56267;SDS011;42175;46.930;9.532;2022-11-15T05:23:43;2.05;;;1.17;;
56267;SDS011;42175;46.930;9.532;2022-11-15T05:26:08;1.67;;;0.93;;
56267;SDS011;42175;46.930;9.532;2022-11-15T05:28:35;1.88;;;0.98;;
56267;SDS011;42175;46.930;9.532;2022-11-15T05:31:05;1.80;;;1.30;;
56267;SDS011;42175;46.930;9.532;2022-11-15T05:33:32;1.80;;;1.15;;
56267;SDS011;42175;46.930;9.532;2022-11-15T05:36:01;3.53;;;1.85;;
56267;SDS011;42175;46.930;9.532;2022-11-15T05:38:34;1.98;;;1.13;;
56267;SDS011;42175;46.930;9.532;2022-11-15T05:41:00;3.80;;;1.60;;
56267;SDS011;42175;46.930;9.532;2022-11-15T05:43:28;3.67;;;1.20;;
56267;SDS011;42175;46.930;9.532;2022-11-15T05:45:57;3.15;;;0.90;;
56267;SDS011;42175;46.930;9.532;2022-11-15T05:48:24;3.17;;;0.90;;
56267;SDS011;42175;46.930;9.532;2022-11-15T05:50:50;3.65;;;1.15;;
56267;SDS011;42175;46.930;9.532;2022-11-15T05:53:18;4.50;;;1.00;;
56267;SDS011;42175;46.930;9.532;2022-11-15T05:55:46;6.40;;;1.20;;
56267;SDS011;42175;46.930;9.532;2022-11-15T05:58:12;1.83;;;1.02;;
56267;SDS011;42175;46.930;9.532;2022-11-15T06:00:38;4.95;;;1.00;;
56267;SDS011;42175;46.930;9.532;2022-11-15T06:03:04;4.00;;;1.20;;
56267;SDS011;42175;46.930;9.532;2022-11-15T06:05:30;8.40;;;1.10;;
56267;SDS011;42175;46.930;9.532;2022-11-15T06:07:59;5.05;;;1.15;;
56267;SDS011;42175;46.930;9.532;2022-11-15T06:10:25;4.57;;;1.17;;
56267;SDS011;42175;46.930;9.532;2022-11-15T06:13:01;3.83;;;1.30;;
56267;SDS011;42175;46.930;9.532;2022-11-15T06:15:28;3.45;;;0.93;;
56267;SDS011;42175;46.930;9.532;2022-11-15T06:17:57;3.15;;;1.02;;
56267;SDS011;42175;46.930;9.532;2022-11-15T06:20:27;2.47;;;1.08;;
56267;SDS011;42175;46.930;9.532;2022-11-15T06:23:02;3.08;;;1.00;;
56267;SDS011;42175;46.930;9.532;2022-11-15T06:25:29;1.65;;;1.02;;
56267;SDS011;42175;46.930;9.532;2022-11-15T06:27:56;5.55;;;1.23;;
56267;SDS011;42175;46.930;9.532;2022-11-15T06:30:24;1.95;;;1.02;;
56267;SDS011;42175;46.930;9.532;2022-11-15T06:32:51;2.03;;;1.10;;
56267;SDS011;42175;46.930;9.532;2022-11-15T06:35:23;3.35;;;1.25;;
56267;SDS011;42175;46.930;9.532;2022-11-15T06:37:49;4.82;;;1.13;;
56267;SDS011;42175;46.930;9.532;2022-11-15T06:40:14;2.28;;;0.80;;
56267;SDS011;42175;46.930;9.532;2022-11-15T06:42:40;2.72;;;0.98;;
56267;SDS011;42175;46.930;9.532;2022-11-15T06:45:06;1.80;;;1.00;;
56267;SDS011;42175;46.930;9.532;2022-11-15T06:47:32;4.72;;;1.17;;
56267;SDS011;42175;46.930;9.532;2022-11-15T06:49:58;5.25;;;1.45;;
56267;SDS011;42175;46.930;9.532;2022-11-15T06:52:24;3.78;;;1.08;;
56267;SDS011;42175;46.930;9.532;2022-11-15T06:54:49;1.92;;;1.27;;
56267;SDS011;42175;46.930;9.532;2022-11-15T06:57:15;3.20;;;1.00;;
56267;SDS011;42175;46.930;9.532;2022-11-15T06:59:41;2.60;;;1.13;;
56267;SDS011;42175;46.930;9.532;2022-11-15T07:02:11;5.18;;;1.30;;
56267;SDS011;42175;46.930;9.532;2022-11-15T07:04:38;5.95;;;1.20;;
56267;SDS011;42175;46.930;9.532;2022-11-15T07:07:04;3.17;;;1.50;;
56267;SDS011;42175;46.930;9.532;2022-11-15T07:09:30;3.22;;;1.60;;
56267;SDS011;42175;46.930;9.532;2022-11-15T07:11:55;7.07;;;1.40;;
56267;SDS011;42175;46.930;9.532;2022-11-15T07:14:21;4.13;;;1.60;;
56267;SDS011;42175;46.930;9.532;2022-11-15T07:16:47;3.55;;;1.30;;
56267;SDS011;42175;46.930;9.532;2022-11-15T07:19:12;6.82;;;1.30;;
56267;SDS011;42175;46.930;9.532;2022-11-15T07:21:38;5.05;;;1.50;;
56267;SDS011;42175;46.930;9.532;2022-11-15T07:24:04;4.40;;;1.48;;
56267;SDS011;42175;46.930;9.532;2022-11-15T07:26:30;7.20;;;1.92;;
56267;SDS011;42175;46.930;9.532;2022-11-15T07:28:55;4.47;;;2.22;;
56267;SDS011;42175;46.930;9.532;2022-11-15T07:31:21;7.25;;;1.90;;
56267;SDS011;42175;46.930;9.532;2022-11-15T07:33:47;7.10;;;2.20;;
56267;SDS011;42175;46.930;9.532;2022-11-15T07:36:13;5.60;;;2.20;;
56267;SDS011;42175;46.930;9.532;2022-11-15T07:38:39;4.78;;;2.15;;
56267;SDS011;42175;46.930;9.532;2022-11-15T07:41:05;7.10;;;4.95;;
56267;SDS011;42175;46.930;9.532;2022-11-15T07:43:32;9.05;;;4.90;;
56267;SDS011;42175;46.930;9.532;2022-11-15T07:45:58;10.07;;;4.47;;
56267;SDS011;42175;46.930;9.532;2022-11-15T07:48:29;8.18;;;3.75;;
56267;SDS011;42175;46.930;9.532;2022-11-15T07:50:55;8.20;;;3.90;;
56267;SDS011;42175;46.930;9.532;2022-11-15T07:53:21;5.82;;;3.78;;
56267;SDS011;42175;46.930;9.532;2022-11-15T07:55:46;5.95;;;3.50;;
56267;SDS011;42175;46.930;9.532;2022-11-15T07:58:12;13.05;;;4.07;;
56267;SDS011;42175;46.930;9.532;2022-11-15T08:00:38;7.43;;;3.47;;
56267;SDS011;42175;46.930;9.532;2022-11-15T08:03:05;5.75;;;3.65;;
56267;SDS011;42175;46.930;9.532;2022-11-15T08:05:32;9.43;;;3.72;;
56267;SDS011;42175;46.930;9.532;2022-11-15T08:07:59;9.35;;;3.55;;
56267;SDS011;42175;46.930;9.532;2022-11-15T08:10:25;7.00;;;3.22;;
56267;SDS011;42175;46.930;9.532;2022-11-15T08:13:05;8.60;;;3.72;;
56267;SDS011;42175;46.930;9.532;2022-11-15T08:15:33;9.93;;;3.20;;
56267;SDS011;42175;46.930;9.532;2022-11-15T08:18:00;6.22;;;2.85;;
56267;SDS011;42175;46.930;9.532;2022-11-15T08:20:34;6.20;;;3.25;;
56267;SDS011;42175;46.930;9.532;2022-11-15T08:23:01;6.35;;;2.80;;
56267;SDS011;42175;46.930;9.532;2022-11-15T08:25:29;9.38;;;2.70;;
56267;SDS011;42175;46.930;9.532;2022-11-15T08:27:57;5.15;;;2.95;;
56267;SDS011;42175;46.930;9.532;2022-11-15T08:30:24;5.25;;;3.55;;
56267;SDS011;42175;46.930;9.532;2022-11-15T08:32:51;5.82;;;3.38;;
56267;SDS011;42175;46.930;9.532;2022-11-15T08:35:18;7.60;;;3.08;;
56267;SDS011;42175;46.930;9.532;2022-11-15T08:37:46;6.93;;;2.75;;
56267;SDS011;42175;46.930;9.532;2022-11-15T08:40:12;5.80;;;2.78;;
56267;SDS011;42175;46.930;9.532;2022-11-15T08:42:39;6.05;;;2.65;;
56267;SDS011;42175;46.930;9.532;2022-11-15T08:45:06;6.68;;;2.83;;
56267;SDS011;42175;46.930;9.532;2022-11-15T08:47:33;5.18;;;3.00;;
56267;SDS011;42175;46.930;9.532;2022-11-15T08:49:59;5.28;;;2.38;;
56267;SDS011;42175;46.930;9.532;2022-11-15T08:52:25;8.95;;;2.72;;
56267;SDS011;42175;46.930;9.532;2022-11-15T08:54:51;4.90;;;2.65;;
56267;SDS011;42175;46.930;9.532;2022-11-15T08:57:17;5.28;;;2.95;;
56267;SDS011;42175;46.930;9.532;2022-11-15T08:59:43;10.38;;;2.70;;
56267;SDS011;42175;46.930;9.532;2022-11-15T09:02:12;7.93;;;2.58;;
56267;SDS011;42175;46.930;9.532;2022-11-15T09:04:40;7.97;;;3.40;;
56267;SDS011;42175;46.930;9.532;2022-11-15T09:07:08;5.97;;;2.92;;
56267;SDS011;42175;46.930;9.532;2022-11-15T09:09:35;6.05;;;3.05;;
56267;SDS011;42175;46.930;9.532;2022-11-15T09:12:02;6.28;;;2.78;;
56267;SDS011;42175;46.930;9.532;2022-11-15T09:14:29;9.20;;;3.10;;
56267;SDS011;42175;46.930;9.532;2022-11-15T09:16:54;7.03;;;2.83;;
56267;SDS011;42175;46.930;9.532;2022-11-15T09:19:20;6.20;;;2.90;;
56267;SDS011;42175;46.930;9.532;2022-11-15T09:21:46;6.93;;;2.67;;
56267;SDS011;42175;46.930;9.532;2022-11-15T09:24:12;5.18;;;2.63;;
56267;SDS011;42175;46.930;9.532;2022-11-15T09:26:38;5.43;;;2.72;;
56267;SDS011;42175;46.930;9.532;2022-11-15T09:29:05;4.82;;;2.58;;
56267;SDS011;42175;46.930;9.532;2022-11-15T09:31:30;12.32;;;3.85;;
56267;SDS011;42175;46.930;9.532;2022-11-15T09:33:57;7.53;;;3.00;;
56267;SDS011;42175;46.930;9.532;2022-11-15T09:36:23;4.88;;;2.65;;
56267;SDS011;42175;46.930;9.532;2022-11-15T09:38:48;8.80;;;2.92;;
56267;SDS011;42175;46.930;9.532;2022-11-15T09:49:18;5.60;;;3.13;;
56267;SDS011;42175;46.930;9.532;2022-11-15T09:51:47;5.28;;;2.83;;
56267;SDS011;42175;46.930;9.532;2022-11-15T09:54:31;7.40;;;3.20;;
56267;SDS011;42175;46.930;9.532;2022-11-15T10:05:17;6.35;;;3.05;;
56267;SDS011;42175;46.930;9.532;2022-11-15T10:10:44;4.85;;;2.58;;
56267;SDS011;42175;46.930;9.532;2022-11-15T10:13:33;6.95;;;2.40;;
56267;SDS011;42175;46.930;9.532;2022-11-15T10:24:26;7.25;;;2.92;;
56267;SDS011;42175;46.930;9.532;2022-11-15T10:26:54;3.78;;;1.98;;
56267;SDS011;42175;46.930;9.532;2022-11-15T10:29:22;4.85;;;2.53;;
56267;SDS011;42175;46.930;9.532;2022-11-15T10:31:49;3.50;;;1.92;;
56267;SDS011;42175;46.930;9.532;2022-11-15T10:34:17;6.32;;;2.40;;
56267;SDS011;42175;46.930;9.532;2022-11-15T10:36:56;3.65;;;2.40;;
56267;SDS011;42175;46.930;9.532;2022-11-15T10:39:24;4.88;;;2.15;;
56267;SDS011;42175;46.930;9.532;2022-11-15T10:41:50;4.50;;;2.78;;
56267;SDS011;42175;46.930;9.532;2022-11-15T10:46:46;3.83;;;2.13;;
56267;SDS011;42175;46.930;9.532;2022-11-15T10:49:26;5.95;;;2.50;;
56267;SDS011;42175;46.930;9.532;2022-11-15T10:51:57;7.93;;;2.60;;
56267;SDS011;42175;46.930;9.532;2022-11-15T10:54:39;6.10;;;2.42;;
56267;SDS011;42175;46.930;9.532;2022-11-15T10:57:20;3.45;;;1.92;;
56267;SDS011;42175;46.930;9.532;2022-11-15T10:59:56;4.45;;;2.08;;
56267;SDS011;42175;46.930;9.532;2022-11-15T11:02:37;4.50;;;1.98;;
56267;SDS011;42175;46.930;9.532;2022-11-15T11:05:26;3.95;;;1.95;;
56267;SDS011;42175;46.930;9.532;2022-11-15T11:08:20;5.72;;;2.13;;
56267;SDS011;42175;46.930;9.532;2022-11-15T11:10:57;3.17;;;2.10;;
56267;SDS011;42175;46.930;9.532;2022-11-15T11:13:25;6.70;;;2.13;;
56267;SDS011;42175;46.930;9.532;2022-11-15T11:24:48;3.80;;;1.83;;
56267;SDS011;42175;46.930;9.532;2022-11-15T11:52:18;4.55;;;1.65;;
56267;SDS011;42175;46.930;9.532;2022-11-15T12:00:04;2.72;;;1.70;;
56267;SDS011;42175;46.930;9.532;2022-11-15T12:02:35;3.10;;;1.70;;
56267;SDS011;42175;46.930;9.532;2022-11-15T12:05:20;7.63;;;2.45;;
56267;SDS011;42175;46.930;9.532;2022-11-15T12:07:54;3.88;;;1.80;;
56267;SDS011;42175;46.930;9.532;2022-11-15T12:10:28;5.28;;;2.10;;
56267;SDS011;42175;46.930;9.532;2022-11-15T12:13:06;4.25;;;2.08;;
56267;SDS011;42175;46.930;9.532;2022-11-15T12:15:48;3.70;;;1.85;;
56267;SDS011;42175;46.930;9.532;2022-11-15T12:18:22;4.40;;;2.08;;
56267;SDS011;42175;46.930;9.532;2022-11-15T12:20:52;2.83;;;1.83;;
56267;SDS011;42175;46.930;9.532;2022-11-15T12:23:25;4.25;;;1.70;;
56267;SDS011;42175;46.930;9.532;2022-11-15T12:26:18;3.25;;;1.65;;
56267;SDS011;42175;46.930;9.532;2022-11-15T12:28:52;5.63;;;2.22;;
56267;SDS011;42175;46.930;9.532;2022-11-15T12:33:57;3.60;;;2.10;;
56267;SDS011;42175;46.930;9.532;2022-11-15T12:38:51;2.53;;;1.63;;
56267;SDS011;42175;46.930;9.532;2022-11-15T12:41:18;2.80;;;1.70;;
56267;SDS011;42175;46.930;9.532;2022-11-15T12:43:46;3.63;;;2.00;;
56267;SDS011;42175;46.930;9.532;2022-11-15T12:46:26;5.75;;;2.08;;
56267;SDS011;42175;46.930;9.532;2022-11-15T12:49:41;3.72;;;1.88;;
56267;SDS011;42175;46.930;9.532;2022-11-15T13:22:46;6.22;;;1.58;;
56267;SDS011;42175;46.930;9.532;2022-11-15T13:30:40;4.03;;;1.70;;
56267;SDS011;42175;46.930;9.532;2022-11-15T13:33:14;5.03;;;1.80;;
56267;SDS011;42175;46.930;9.532;2022-11-15T13:35:59;2.95;;;1.60;;
56267;SDS011;42175;46.930;9.532;2022-11-15T13:38:31;3.58;;;1.80;;
56267;SDS011;42175;46.930;9.532;2022-11-15T13:43:59;4.15;;;1.90;;
56267;SDS011;42175;46.930;9.532;2022-11-15T13:46:28;2.85;;;1.92;;
56267;SDS011;42175;46.930;9.532;2022-11-15T13:48:59;2.92;;;1.60;;
56267;SDS011;42175;46.930;9.532;2022-11-15T13:51:37;4.15;;;1.70;;
56267;SDS011;42175;46.930;9.532;2022-11-15T13:54:29;4.22;;;2.13;;
56267;SDS011;42175;46.930;9.532;2022-11-15T13:57:24;3.65;;;1.50;;
56267;SDS011;42175;46.930;9.532;2022-11-15T14:00:01;7.88;;;1.80;;
56267;SDS011;42175;46.930;9.532;2022-11-15T14:02:31;4.88;;;2.20;;
56267;SDS011;42175;46.930;9.532;2022-11-15T14:05:04;5.43;;;2.20;;
56267;SDS011;42175;46.930;9.532;2022-11-15T14:07:44;3.50;;;1.95;;
56267;SDS011;42175;46.930;9.532;2022-11-15T14:10:40;3.00;;;1.80;;
56267;SDS011;42175;46.930;9.532;2022-11-15T14:13:10;6.30;;;2.50;;
56267;SDS011;42175;46.930;9.532;2022-11-15T14:15:54;5.65;;;2.17;;
56267;SDS011;42175;46.930;9.532;2022-11-15T14:21:08;6.78;;;2.20;;
56267;SDS011;42175;46.930;9.532;2022-11-15T14:23:34;4.72;;;1.90;;
56267;SDS011;42175;46.930;9.532;2022-11-15T14:26:00;2.85;;;1.70;;
56267;SDS011;42175;46.930;9.532;2022-11-15T14:30:52;5.80;;;2.15;;
56267;SDS011;42175;46.930;9.532;2022-11-15T14:33:24;3.58;;;2.05;;
56267;SDS011;42175;46.930;9.532;2022-11-15T14:35:54;5.10;;;2.33;;
56267;SDS011;42175;46.930;9.532;2022-11-15T14:38:22;3.42;;;1.85;;
56267;SDS011;42175;46.930;9.532;2022-11-15T14:40:49;4.78;;;1.92;;
56267;SDS011;42175;46.930;9.532;2022-11-15T14:43:16;6.43;;;1.80;;
56267;SDS011;42175;46.930;9.532;2022-11-15T14:45:41;4.85;;;2.05;;
56267;SDS011;42175;46.930;9.532;2022-11-15T14:48:07;3.20;;;1.92;;
56267;SDS011;42175;46.930;9.532;2022-11-15T14:50:34;3.58;;;1.80;;
56267;SDS011;42175;46.930;9.532;2022-11-15T14:53:01;5.43;;;2.05;;
56267;SDS011;42175;46.930;9.532;2022-11-15T14:55:28;6.43;;;1.90;;
56267;SDS011;42175;46.930;9.532;2022-11-15T14:58:04;5.68;;;2.47;;
56267;SDS011;42175;46.930;9.532;2022-11-15T15:00:35;5.50;;;2.10;;
56267;SDS011;42175;46.930;9.532;2022-11-15T15:03:03;4.63;;;2.03;;
56267;SDS011;42175;46.930;9.532;2022-11-15T15:05:38;4.05;;;2.47;;
56267;SDS011;42175;46.930;9.532;2022-11-15T15:08:06;4.22;;;2.63;;
56267;SDS011;42175;46.930;9.532;2022-11-15T15:10:39;4.22;;;2.10;;
56267;SDS011;42175;46.930;9.532;2022-11-15T15:15:42;5.22;;;2.20;;
56267;SDS011;42175;46.930;9.532;2022-11-15T15:18:08;6.60;;;2.05;;
56267;SDS011;42175;46.930;9.532;2022-11-15T15:20:34;5.70;;;2.75;;
56267;SDS011;42175;46.930;9.532;2022-11-15T15:23:02;5.70;;;2.60;;
56267;SDS011;42175;46.930;9.532;2022-11-15T15:25:28;5.93;;;2.65;;
56267;SDS011;42175;46.930;9.532;2022-11-15T15:27:58;8.93;;;2.95;;
56267;SDS011;42175;46.930;9.532;2022-11-15T15:30:25;3.78;;;2.70;;
56267;SDS011;42175;46.930;9.532;2022-11-15T15:32:52;3.22;;;2.08;;
56267;SDS011;42175;46.930;9.532;2022-11-15T15:35:19;3.50;;;2.08;;
56267;SDS011;42175;46.930;9.532;2022-11-15T15:37:45;5.43;;;2.58;;
56267;SDS011;42175;46.930;9.532;2022-11-15T15:42:41;7.05;;;2.50;;
56267;SDS011;42175;46.930;9.532;2022-11-15T15:45:08;7.50;;;2.95;;
56267;SDS011;42175;46.930;9.532;2022-11-15T15:47:36;5.93;;;3.38;;
56267;SDS011;42175;46.930;9.532;2022-11-15T15:50:03;5.10;;;2.63;;
56267;SDS011;42175;46.930;9.532;2022-11-15T15:52:39;6.38;;;2.53;;
56267;SDS011;42175;46.930;9.532;2022-11-15T15:55:05;7.32;;;2.75;;
56267;SDS011;42175;46.930;9.532;2022-11-15T15:57:32;6.22;;;2.80;;
56267;SDS011;42175;46.930;9.532;2022-11-15T15:59:58;8.27;;;2.80;;
56267;SDS011;42175;46.930;9.532;2022-11-15T16:02:24;8.32;;;3.38;;
56267;SDS011;42175;46.930;9.532;2022-11-15T16:04:49;8.32;;;3.15;;
56267;SDS011;42175;46.930;9.532;2022-11-15T16:07:16;7.97;;;3.15;;
56267;SDS011;42175;46.930;9.532;2022-11-15T16:09:46;9.55;;;3.58;;
56267;SDS011;42175;46.930;9.532;2022-11-15T16:12:27;9.82;;;3.60;;
56267;SDS011;42175;46.930;9.532;2022-11-15T16:14:54;8.40;;;3.70;;
56267;SDS011;42175;46.930;9.532;2022-11-15T16:17:21;8.07;;;3.53;;
56267;SDS011;42175;46.930;9.532;2022-11-15T16:19:50;8.85;;;3.60;;
56267;SDS011;42175;46.930;9.532;2022-11-15T16:22:16;12.45;;;4.18;;
56267;SDS011;42175;46.930;9.532;2022-11-15T16:24:41;11.43;;;4.22;;
56267;SDS011;42175;46.930;9.532;2022-11-15T16:27:13;9.77;;;3.95;;
56267;SDS011;42175;46.930;9.532;2022-11-15T16:29:44;13.93;;;4.35;;
56267;SDS011;42175;46.930;9.532;2022-11-15T16:32:11;10.63;;;4.22;;
56267;SDS011;42175;46.930;9.532;2022-11-15T16:34:39;10.50;;;4.03;;
56267;SDS011;42175;46.930;9.532;2022-11-15T16:37:05;11.32;;;4.40;;
56267;SDS011;42175;46.930;9.532;2022-11-15T16:39:39;19.70;;;4.15;;
56267;SDS011;42175;46.930;9.532;2022-11-15T16:42:04;11.10;;;4.70;;
56267;SDS011;42175;46.930;9.532;2022-11-15T16:44:30;11.88;;;4.43;;
56267;SDS011;42175;46.930;9.532;2022-11-15T16:46:56;11.68;;;4.10;;
56267;SDS011;42175;46.930;9.532;2022-11-15T16:49:21;11.27;;;4.45;;
56267;SDS011;42175;46.930;9.532;2022-11-15T16:51:48;12.45;;;4.20;;
56267;SDS011;42175;46.930;9.532;2022-11-15T16:54:14;9.45;;;3.83;;
56267;SDS011;42175;46.930;9.532;2022-11-15T16:56:40;12.38;;;4.60;;
56267;SDS011;42175;46.930;9.532;2022-11-15T16:59:06;12.10;;;3.83;;
56267;SDS011;42175;46.930;9.532;2022-11-15T17:01:38;10.68;;;4.95;;
56267;SDS011;42175;46.930;9.532;2022-11-15T17:04:10;9.45;;;4.22;;
56267;SDS011;42175;46.930;9.532;2022-11-15T17:06:37;9.10;;;3.72;;
56267;SDS011;42175;46.930;9.532;2022-11-15T17:09:05;11.27;;;4.15;;
56267;SDS011;42175;46.930;9.532;2022-11-15T17:11:35;15.70;;;4.53;;
56267;SDS011;42175;46.930;9.532;2022-11-15T17:14:00;11.10;;;4.00;;
56267;SDS011;42175;46.930;9.532;2022-11-15T17:16:26;11.38;;;4.30;;
56267;SDS011;42175;46.930;9.532;2022-11-15T17:18:52;17.00;;;4.85;;
56267;SDS011;42175;46.930;9.532;2022-11-15T17:21:19;13.40;;;4.30;;
56267;SDS011;42175;46.930;9.532;2022-11-15T17:23:46;8.38;;;4.38;;
56267;SDS011;42175;46.930;9.532;2022-11-15T17:26:13;11.30;;;4.70;;
56267;SDS011;42175;46.930;9.532;2022-11-15T17:28:40;10.63;;;4.22;;
56267;SDS011;42175;46.930;9.532;2022-11-15T17:31:09;10.43;;;4.68;;
56267;SDS011;42175;46.930;9.532;2022-11-15T17:33:37;11.45;;;4.85;;
56267;SDS011;42175;46.930;9.532;2022-11-15T17:36:05;14.02;;;4.38;;